createdAt,value
2019-02-15T00:00:49.825Z,83.20
2019-02-15T00:03:16.378Z,82.79
2019-02-15T00:05:45.774Z,82.67
2019-02-15T00:08:12.317Z,83.02
2019-02-15T00:10:38.889Z,83.41
2019-02-15T00:13:13.322Z,83.52
2019-02-15T00:15:33.937Z,83.25
2019-02-15T00:18:20.165Z,83.44
2019-02-15T00:21:09.281Z,83.46
2019-02-15T00:23:35.783Z,83.60
2019-02-15T00:26:02.678Z,83.72
2019-02-15T00:28:29.233Z,83.75
2019-02-15T00:30:55.786Z,82.99
2019-02-15T00:33:22.339Z,82.04
2019-02-15T00:35:48.930Z,81.20
2019-02-15T00:38:15.484Z,81.13
2019-02-15T00:40:42.059Z,80.53
2019-02-15T00:43:08.621Z,80.89
2019-02-15T00:45:48.150Z,80.86
2019-02-15T00:48:17.393Z,80.87
2019-02-15T00:50:57.760Z,81.35
2019-02-15T00:53:39.427Z,81.82
2019-02-15T00:56:24.010Z,82.61
2019-02-15T00:59:08.670Z,82.58
2019-02-15T01:01:49.162Z,82.90
2019-02-15T01:04:33.900Z,81.87
2019-02-15T01:07:11.663Z,81.40
2019-02-15T01:09:46.050Z,81.74
2019-02-15T01:12:27.952Z,82.49
2019-02-15T01:14:56.784Z,82.90
2019-02-15T01:17:23.346Z,83.93
2019-02-15T01:19:49.923Z,83.81
2019-02-15T01:22:16.459Z,83.86
2019-02-15T01:24:43.029Z,84.64
2019-02-15T01:27:17.892Z,84.83
2019-02-15T01:29:56.322Z,85.10
2019-02-15T01:32:32.288Z,84.97
2019-02-15T01:35:15.829Z,84.99
2019-02-15T01:38:07.722Z,85.29
2019-02-15T01:40:48.749Z,85.70
2019-02-15T01:43:40.793Z,85.97
2019-02-15T01:46:20.153Z,85.89
2019-02-15T01:48:46.698Z,84.99
2019-02-15T01:51:13.264Z,84.76
2019-02-15T01:53:39.827Z,85.41
2019-02-15T01:56:06.388Z,87.20
2019-02-15T01:58:32.947Z,86.41
2019-02-15T02:00:59.524Z,86.24
2019-02-15T02:03:26.408Z,86.24
2019-02-15T02:05:52.986Z,86.40
2019-02-15T02:08:22.123Z,86.78
2019-02-15T02:10:48.801Z,87.52
2019-02-15T02:13:15.363Z,87.36
2019-02-15T02:15:41.946Z,87.25
2019-02-15T02:18:08.485Z,86.63
2019-02-15T02:20:35.030Z,86.26
2019-02-15T02:23:01.929Z,85.86
2019-02-15T02:25:28.528Z,85.91
2019-02-15T02:27:55.096Z,85.96
2019-02-15T02:30:21.641Z,86.30
2019-02-15T02:32:48.209Z,86.10
2019-02-15T02:35:14.755Z,86.03
2019-02-15T02:37:41.345Z,85.93
2019-02-15T02:40:07.852Z,85.92
2019-02-15T02:42:34.452Z,86.07
2019-02-15T02:45:00.997Z,86.54
2019-02-15T02:47:27.561Z,86.56
2019-02-15T02:49:54.133Z,87.05
2019-02-15T02:52:20.658Z,87.44
2019-02-15T02:54:47.207Z,87.20
2019-02-15T02:57:13.763Z,87.11
2019-02-15T02:59:40.303Z,87.03
2019-02-15T03:02:06.853Z,87.86
2019-02-15T03:04:33.399Z,87.73
2019-02-15T03:06:59.959Z,87.63
2019-02-15T03:09:26.519Z,87.51
2019-02-15T03:11:53.098Z,87.17
2019-02-15T03:14:19.660Z,87.36
2019-02-15T03:16:46.219Z,87.35
2019-02-15T03:19:12.793Z,87.42
2019-02-15T03:21:39.364Z,87.49
2019-02-15T03:24:05.903Z,87.35
2019-02-15T03:26:32.503Z,87.12
2019-02-15T03:28:59.076Z,87.09
2019-02-15T03:31:25.602Z,86.79
2019-02-15T03:33:52.163Z,87.21
2019-02-15T03:36:32.510Z,87.85
2019-02-15T03:39:09.257Z,88.06
2019-02-15T03:41:35.903Z,86.95
2019-02-15T03:44:02.476Z,86.58
2019-02-15T03:46:29.005Z,86.29
2019-02-15T03:48:55.572Z,86.45
2019-02-15T03:51:22.115Z,86.32
2019-02-15T03:53:49.897Z,86.28
2019-02-15T03:56:16.438Z,86.10
2019-02-15T03:58:43.008Z,86.17
2019-02-15T04:01:09.561Z,86.58
2019-02-15T04:03:36.133Z,87.34
2019-02-15T04:06:02.702Z,87.01
2019-02-15T04:08:29.260Z,86.56
2019-02-15T04:10:55.808Z,86.23
2019-02-15T04:13:22.366Z,86.38
2019-02-15T04:15:48.932Z,86.80
2019-02-15T04:18:15.503Z,86.07
2019-02-15T04:20:42.044Z,85.75
2019-02-15T04:23:08.615Z,86.56
2019-02-15T04:25:35.194Z,86.30
2019-02-15T04:28:01.742Z,86.84
2019-02-15T04:30:28.283Z,87.61
2019-02-15T04:32:54.848Z,86.87
2019-02-15T04:35:21.398Z,86.61
2019-02-15T04:37:47.967Z,86.51
2019-02-15T04:40:14.512Z,86.90
2019-02-15T04:42:41.079Z,87.00
2019-02-15T04:45:07.670Z,87.24
2019-02-15T04:47:34.223Z,87.39
2019-02-15T04:50:00.786Z,87.42
2019-02-15T04:52:27.325Z,87.79
2019-02-15T04:54:53.886Z,87.97
2019-02-15T04:57:20.446Z,87.55
2019-02-15T04:59:47.016Z,87.10
2019-02-15T05:02:13.576Z,87.07
2019-02-15T05:04:40.128Z,87.27
2019-02-15T05:07:06.693Z,87.09
2019-02-15T05:09:33.268Z,87.39
2019-02-15T05:11:59.838Z,87.63
2019-02-15T05:14:26.369Z,88.12
2019-02-15T05:16:52.952Z,87.82
2019-02-15T05:19:19.491Z,87.79
2019-02-15T05:21:46.065Z,88.17
2019-02-15T05:24:12.613Z,88.06
2019-02-15T05:26:39.163Z,87.26
2019-02-15T05:29:05.727Z,86.56
2019-02-15T05:31:32.266Z,86.48
2019-02-15T05:33:58.850Z,86.25
2019-02-15T05:36:25.404Z,86.59
2019-02-15T05:38:51.986Z,86.57
2019-02-15T05:41:18.517Z,86.45
2019-02-15T05:43:45.088Z,86.42
2019-02-15T05:46:11.633Z,86.78
2019-02-15T05:48:38.202Z,86.48
2019-02-15T05:51:10.142Z,86.66
2019-02-15T05:53:36.986Z,86.60
2019-02-15T05:56:03.534Z,86.41
2019-02-15T05:58:30.065Z,86.47
2019-02-15T06:00:56.630Z,86.78
2019-02-15T06:03:23.185Z,86.92
2019-02-15T06:05:49.738Z,87.23
2019-02-15T06:08:16.277Z,87.41
2019-02-15T06:10:42.839Z,87.30
2019-02-15T06:13:09.417Z,87.16
2019-02-15T06:15:35.974Z,87.03
2019-02-15T06:18:02.527Z,86.93
2019-02-15T06:20:29.092Z,86.98
2019-02-15T06:22:55.659Z,87.21
2019-02-15T06:25:22.219Z,87.65
2019-02-15T06:27:48.786Z,87.38
2019-02-15T06:30:15.315Z,87.18
2019-02-15T06:32:41.884Z,87.44
2019-02-15T06:35:08.443Z,87.93
2019-02-15T06:37:34.995Z,88.03
2019-02-15T06:40:01.599Z,87.83
2019-02-15T06:42:28.522Z,87.62
2019-02-15T06:44:55.092Z,87.53
2019-02-15T06:47:21.629Z,87.62
2019-02-15T06:49:48.188Z,87.81
2019-02-15T06:52:14.748Z,87.72
2019-02-15T06:54:41.281Z,87.64
2019-02-15T06:57:07.847Z,87.61
2019-02-15T07:00:00.292Z,87.74
2019-02-15T07:02:46.481Z,87.62
2019-02-15T07:05:17.155Z,87.30
2019-02-15T07:07:43.372Z,87.10
2019-02-15T07:10:09.870Z,86.96
2019-02-15T07:12:36.415Z,87.14
2019-02-15T07:15:03.213Z,87.33
2019-02-15T07:17:29.790Z,87.36
2019-02-15T07:19:56.333Z,87.50
2019-02-15T07:22:22.897Z,87.61
2019-02-15T07:24:49.444Z,87.26
2019-02-15T07:27:16.001Z,87.18
2019-02-15T07:29:42.560Z,87.26
2019-02-15T07:32:09.096Z,87.11
2019-02-15T07:34:35.669Z,87.29
2019-02-15T07:37:02.227Z,87.41
2019-02-15T07:39:28.790Z,86.55
2019-02-15T07:41:55.352Z,85.43
2019-02-15T07:44:21.896Z,85.26
2019-02-15T07:46:48.463Z,85.26
2019-02-15T07:49:15.030Z,85.94
2019-02-15T07:51:41.575Z,85.66
2019-02-15T07:54:08.122Z,85.55
2019-02-15T07:56:34.679Z,85.25
2019-02-15T07:59:01.219Z,85.54
2019-02-15T08:01:27.792Z,85.32
2019-02-15T08:03:54.328Z,85.17
2019-02-15T08:06:20.897Z,84.64
2019-02-15T08:08:47.433Z,84.47
2019-02-15T08:11:14.002Z,84.22
2019-02-15T08:13:40.552Z,83.76
2019-02-15T08:16:07.117Z,82.47
2019-02-15T08:18:33.674Z,80.16
2019-02-15T08:21:00.230Z,78.92
2019-02-15T08:23:26.776Z,75.44
2019-02-15T08:25:53.367Z,73.80
2019-02-15T08:28:19.906Z,74.24
2019-02-15T08:30:46.447Z,74.02
2019-02-15T08:33:13.021Z,65.36
2019-02-15T08:35:39.551Z,65.36
2019-02-15T08:38:06.102Z,54.34
2019-02-15T08:40:32.637Z,48.05
2019-02-15T08:42:59.198Z,41.14
2019-02-15T08:45:25.757Z,40.33
2019-02-15T08:47:52.314Z,37.81
2019-02-15T08:50:18.861Z,34.66
2019-02-15T08:52:45.409Z,34.65
2019-02-15T08:55:11.937Z,30.91
2019-02-15T08:57:38.487Z,32.32
2019-02-15T09:00:06.056Z,30.82
2019-02-15T09:02:32.612Z,31.36
2019-02-15T09:04:59.142Z,30.83
2019-02-15T09:07:25.705Z,31.19
2019-02-15T09:09:52.244Z,30.45
2019-02-15T09:12:18.807Z,29.00
2019-02-15T09:14:45.349Z,28.24
2019-02-15T09:17:11.929Z,27.19
2019-02-15T09:19:38.468Z,26.73
2019-02-15T09:22:05.017Z,28.23
2019-02-15T09:24:31.555Z,26.50
2019-02-15T09:27:00.842Z,25.88
2019-02-15T09:29:27.384Z,25.90
2019-02-15T09:31:53.953Z,25.20
2019-02-15T09:34:20.512Z,25.32
2019-02-15T09:36:47.056Z,24.57
2019-02-15T09:39:13.620Z,24.12
2019-02-15T09:41:40.160Z,25.37
2019-02-15T09:44:06.785Z,25.94
2019-02-15T09:46:33.353Z,25.59
2019-02-15T09:48:59.913Z,26.85
2019-02-15T09:51:26.450Z,23.99
2019-02-15T09:53:53.021Z,25.32
2019-02-15T09:56:19.557Z,24.77
2019-02-15T09:58:46.122Z,23.58
2019-02-15T10:01:12.706Z,26.16
2019-02-15T10:03:39.266Z,26.24
2019-02-15T10:06:05.798Z,25.25
2019-02-15T10:08:32.353Z,24.63
2019-02-15T10:10:58.899Z,23.56
2019-02-15T10:13:25.464Z,21.59
2019-02-15T10:15:52.011Z,23.56
2019-02-15T10:18:18.581Z,23.09
2019-02-15T10:20:45.140Z,23.21
2019-02-15T10:23:11.704Z,20.94
2019-02-15T10:25:38.258Z,20.64
2019-02-15T10:28:04.825Z,23.31
2019-02-15T10:30:31.362Z,23.33
2019-02-15T10:32:57.906Z,23.91
2019-02-15T10:35:24.471Z,23.98
2019-02-15T10:37:51.001Z,24.52
2019-02-15T10:40:17.563Z,23.48
2019-02-15T10:42:44.104Z,26.16
2019-02-15T10:45:11.283Z,21.55
2019-02-15T10:47:37.816Z,21.55
2019-02-15T10:50:05.154Z,22.22
2019-02-15T10:52:31.898Z,21.69
2019-02-15T10:54:58.472Z,21.86
2019-02-15T10:57:25.002Z,22.40
2019-02-15T10:59:51.608Z,23.40
2019-02-15T11:02:18.148Z,21.31
2019-02-15T11:04:44.712Z,20.91
2019-02-15T11:07:11.256Z,22.05
2019-02-15T11:09:37.820Z,23.07
2019-02-15T11:12:04.350Z,22.25
2019-02-15T11:14:31.153Z,20.72
2019-02-15T11:16:57.709Z,21.23
2019-02-15T11:19:24.323Z,20.25
2019-02-15T11:21:50.822Z,21.55
2019-02-15T11:24:17.413Z,20.54
2019-02-15T11:26:43.914Z,21.34
2019-02-15T11:29:10.482Z,21.59
2019-02-15T11:31:37.033Z,21.62
2019-02-15T11:34:03.594Z,21.66
2019-02-15T11:36:30.147Z,22.20
2019-02-15T11:38:56.714Z,20.65
2019-02-15T11:41:23.264Z,19.20
2019-02-15T11:43:49.819Z,20.77
2019-02-15T11:46:16.387Z,18.91
2019-02-15T11:48:42.936Z,20.17
2019-02-15T11:51:09.499Z,20.38
2019-02-15T11:53:36.034Z,17.71
2019-02-15T11:56:02.608Z,18.25
2019-02-15T11:58:29.138Z,18.76
2019-02-15T12:00:55.710Z,20.86
2019-02-15T12:03:22.250Z,19.42
2019-02-15T12:05:48.819Z,19.86
2019-02-15T12:08:15.362Z,20.09
2019-02-15T12:10:41.933Z,20.84
2019-02-15T12:13:08.461Z,19.50
2019-02-15T12:15:35.005Z,21.40
2019-02-15T12:18:01.591Z,20.67
2019-02-15T12:20:28.184Z,21.73
2019-02-15T12:22:54.718Z,21.63
2019-02-15T12:25:21.281Z,19.88
2019-02-15T12:27:48.044Z,20.22
2019-02-15T12:30:14.681Z,20.14
2019-02-15T12:32:41.240Z,21.87
2019-02-15T12:35:07.818Z,19.96
2019-02-15T12:37:34.361Z,20.52
2019-02-15T12:40:00.920Z,20.38
2019-02-15T12:42:27.467Z,20.53
2019-02-15T12:44:54.034Z,20.84
2019-02-15T12:47:20.572Z,20.71
2019-02-15T12:49:47.136Z,19.30
2019-02-15T12:52:13.666Z,20.40
2019-02-15T12:54:40.248Z,19.20
2019-02-15T12:57:06.798Z,17.44
2019-02-15T12:59:33.362Z,21.70
2019-02-15T13:01:59.912Z,19.43
2019-02-15T13:04:26.456Z,20.62
2019-02-15T13:06:53.012Z,20.76
2019-02-15T13:09:19.566Z,21.97
2019-02-15T13:11:46.095Z,21.61
2019-02-15T13:14:12.647Z,20.94
2019-02-15T13:16:39.219Z,20.17
2019-02-15T13:19:05.788Z,20.30
2019-02-15T13:21:32.341Z,20.63
2019-02-15T13:23:58.880Z,20.34
2019-02-15T13:26:25.508Z,19.31
2019-02-15T13:28:52.190Z,20.32
2019-02-15T13:31:18.754Z,19.94
2019-02-15T13:33:45.325Z,20.38
2019-02-15T13:36:12.582Z,19.88
2019-02-15T13:38:39.130Z,20.77
2019-02-15T13:41:05.678Z,21.62
2019-02-15T13:43:32.238Z,20.90
2019-02-15T13:45:58.781Z,21.54
2019-02-15T13:48:25.342Z,22.07
2019-02-15T13:50:51.883Z,22.65
2019-02-15T13:53:18.430Z,21.82
2019-02-15T13:55:45.094Z,21.58
2019-02-15T13:58:11.646Z,19.59
2019-02-15T14:00:38.211Z,20.68
2019-02-15T14:03:04.751Z,21.34
2019-02-15T14:05:31.300Z,20.60
2019-02-15T14:07:57.849Z,20.26
2019-02-15T14:10:24.401Z,20.28
2019-02-15T14:12:50.964Z,20.11
2019-02-15T14:15:17.510Z,22.36
2019-02-15T14:17:46.487Z,21.18
2019-02-15T14:20:12.491Z,21.82
2019-02-15T14:22:39.039Z,22.76
2019-02-15T14:25:06.361Z,23.21
2019-02-15T14:27:32.923Z,23.08
2019-02-15T14:29:59.491Z,22.73
2019-02-15T14:32:26.050Z,22.40
2019-02-15T14:34:52.576Z,22.42
2019-02-15T14:37:19.143Z,22.39
2019-02-15T14:39:45.787Z,22.22
2019-02-15T14:42:12.332Z,21.91
2019-02-15T14:44:38.853Z,21.37
2019-02-15T14:47:05.405Z,21.92
2019-02-15T14:49:31.931Z,21.15
2019-02-15T14:51:58.474Z,21.69
2019-02-15T14:54:25.013Z,21.49
2019-02-15T14:56:51.566Z,22.67
2019-02-15T14:59:18.101Z,22.10
2019-02-15T15:01:44.680Z,21.35
2019-02-15T15:04:11.224Z,21.70
2019-02-15T15:06:37.767Z,21.23
2019-02-15T15:09:04.684Z,20.45
2019-02-15T15:11:31.236Z,20.92
2019-02-15T15:13:57.775Z,22.46
2019-02-15T15:16:24.327Z,23.66
2019-02-15T15:18:50.858Z,22.29
2019-02-15T15:21:17.410Z,20.92
2019-02-15T15:23:43.943Z,19.85
2019-02-15T15:26:12.029Z,20.87
2019-02-15T15:28:38.832Z,22.97
2019-02-15T15:31:06.022Z,23.63
2019-02-15T15:33:32.580Z,26.51
2019-02-15T15:35:59.141Z,27.41
2019-02-15T15:38:25.704Z,28.20
2019-02-15T15:40:52.238Z,28.86
2019-02-15T15:43:18.798Z,30.86
2019-02-15T15:45:45.325Z,29.88
2019-02-15T15:48:11.981Z,30.77
2019-02-15T15:50:40.574Z,31.52
2019-02-15T15:53:07.924Z,32.01
2019-02-15T15:55:34.551Z,31.47
2019-02-15T15:58:01.107Z,31.84
2019-02-15T16:00:27.643Z,32.30
2019-02-15T16:02:54.198Z,32.97
2019-02-15T16:05:20.744Z,32.93
2019-02-15T16:07:47.294Z,32.92
2019-02-15T16:10:13.838Z,33.77
2019-02-15T16:12:40.384Z,33.73
2019-02-15T16:15:07.831Z,34.62
2019-02-15T16:17:34.395Z,33.90
2019-02-15T16:20:00.937Z,34.38
2019-02-15T16:22:27.496Z,34.22
2019-02-15T16:24:54.023Z,34.72
2019-02-15T16:27:20.587Z,34.85
2019-02-15T16:29:47.135Z,36.05
2019-02-15T16:32:13.689Z,36.43
2019-02-15T16:34:40.236Z,36.73
2019-02-15T16:37:06.797Z,37.27
2019-02-15T16:39:33.471Z,37.25
2019-02-15T16:42:00.024Z,37.88
2019-02-15T16:44:26.568Z,37.74
2019-02-15T16:46:53.136Z,38.39
2019-02-15T16:49:19.817Z,38.88
2019-02-15T16:51:46.378Z,38.98
2019-02-15T16:54:12.944Z,37.66
2019-02-15T16:56:39.513Z,39.28
2019-02-15T16:59:06.086Z,38.60
2019-02-15T17:01:32.628Z,39.16
2019-02-15T17:03:59.199Z,38.40
2019-02-15T17:06:25.726Z,39.18
2019-02-15T17:08:52.285Z,39.17
2019-02-15T17:11:18.878Z,40.01
2019-02-15T17:13:45.386Z,40.79
2019-02-15T17:16:11.952Z,41.14
2019-02-15T17:18:38.625Z,41.55
2019-02-15T17:21:05.167Z,41.92
2019-02-15T17:23:31.731Z,42.76
2019-02-15T17:25:58.266Z,42.43
2019-02-15T17:28:24.825Z,41.86
2019-02-15T17:30:51.371Z,41.49
2019-02-15T17:33:17.940Z,39.87
2019-02-15T17:35:44.475Z,41.44
2019-02-15T17:38:11.430Z,41.33
2019-02-15T17:40:37.971Z,41.07
2019-02-15T17:43:04.576Z,40.48
2019-02-15T17:45:31.118Z,40.91
2019-02-15T17:47:57.665Z,41.37
2019-02-15T17:50:24.205Z,42.41
2019-02-15T17:52:50.760Z,42.59
2019-02-15T17:55:17.295Z,42.79
2019-02-15T17:57:43.867Z,42.32
2019-02-15T18:00:10.523Z,42.61
2019-02-15T18:02:37.078Z,42.55
2019-02-15T18:05:03.802Z,41.77
2019-02-15T18:07:30.359Z,43.09
2019-02-15T18:09:56.901Z,42.30
2019-02-15T18:12:23.440Z,42.25
2019-02-15T18:14:49.998Z,42.04
2019-02-15T18:17:16.558Z,43.55
2019-02-15T18:19:47.355Z,43.01
2019-02-15T18:22:11.540Z,43.55
2019-02-15T18:24:38.106Z,42.92
2019-02-15T18:27:04.827Z,43.79
2019-02-15T18:29:31.448Z,44.41
2019-02-15T18:31:57.978Z,44.56
2019-02-15T18:34:24.526Z,44.83
2019-02-15T18:36:51.060Z,45.35
2019-02-15T18:39:17.617Z,45.31
2019-02-15T18:41:44.301Z,45.74
2019-02-15T18:44:10.835Z,45.70
2019-02-15T18:46:37.382Z,45.21
2019-02-15T18:49:03.939Z,45.94
2019-02-15T18:51:30.474Z,46.77
2019-02-15T18:53:57.043Z,45.73
2019-02-15T18:56:23.553Z,46.14
2019-02-15T18:58:50.115Z,46.53
2019-02-15T19:01:16.656Z,46.77
2019-02-15T19:03:43.226Z,47.19
2019-02-15T19:06:09.764Z,47.57
2019-02-15T19:08:36.310Z,47.80
2019-02-15T19:11:03.254Z,47.65
2019-02-15T19:13:29.800Z,48.22
2019-02-15T19:15:56.345Z,48.65
2019-02-15T19:18:22.960Z,47.99
2019-02-15T19:20:49.546Z,48.28
2019-02-15T19:23:16.141Z,48.71
2019-02-15T19:25:42.693Z,48.55
2019-02-15T19:28:09.222Z,48.78
2019-02-15T19:30:35.834Z,48.89
2019-02-15T19:33:02.379Z,48.54
2019-02-15T19:35:28.921Z,48.85
2019-02-15T19:37:55.454Z,49.04
2019-02-15T19:40:22.001Z,49.64
2019-02-15T19:42:49.864Z,50.56
2019-02-15T19:45:16.416Z,50.26
2019-02-15T19:47:42.962Z,50.74
2019-02-15T19:50:11.211Z,50.80
2019-02-15T19:52:38.238Z,50.48
2019-02-15T19:55:05.205Z,49.91
2019-02-15T19:57:31.756Z,50.47
2019-02-15T19:59:58.322Z,50.96
2019-02-15T20:02:24.913Z,51.00
2019-02-15T20:04:51.472Z,50.80
2019-02-15T20:07:18.002Z,51.44
2019-02-15T20:09:44.568Z,51.17
2019-02-15T20:12:11.141Z,51.93
2019-02-15T20:14:37.664Z,51.95
2019-02-15T20:17:04.255Z,52.48
2019-02-15T20:19:30.817Z,51.50
2019-02-15T20:21:57.352Z,51.14
2019-02-15T20:24:23.888Z,51.03
2019-02-15T20:26:50.446Z,50.18
2019-02-15T20:29:16.991Z,50.53
2019-02-15T20:31:43.554Z,50.75
2019-02-15T20:34:10.121Z,50.83
2019-02-15T20:36:36.680Z,51.58
2019-02-15T20:39:03.859Z,50.80
2019-02-15T20:41:30.421Z,51.42
2019-02-15T20:43:56.965Z,51.39
2019-02-15T20:46:23.522Z,50.65
2019-02-15T20:49:03.832Z,51.08
2019-02-15T20:51:18.510Z,51.92
2019-02-15T20:53:45.066Z,50.78
2019-02-15T20:56:11.619Z,51.18
2019-02-15T20:58:38.164Z,51.47
2019-02-15T21:01:04.726Z,52.01
2019-02-15T21:03:31.273Z,51.60
2019-02-15T21:05:57.816Z,51.98
2019-02-15T21:08:26.469Z,52.53
2019-02-15T21:10:55.340Z,51.80
2019-02-15T21:13:21.288Z,52.42
2019-02-15T21:15:48.122Z,51.47
2019-02-15T21:18:14.731Z,51.91
2019-02-15T21:20:41.281Z,52.70
2019-02-15T21:23:07.813Z,52.41
2019-02-15T21:25:34.374Z,52.96
2019-02-15T21:28:00.902Z,52.30
2019-02-15T21:30:27.460Z,52.41
2019-02-15T21:32:53.999Z,52.42
2019-02-15T21:35:20.540Z,52.97
2019-02-15T21:37:47.096Z,53.52
2019-02-15T21:40:14.073Z,53.67
2019-02-15T21:42:40.630Z,52.89
2019-02-15T21:45:07.853Z,53.68
2019-02-15T21:47:34.416Z,54.17
2019-02-15T21:50:00.944Z,53.43
2019-02-15T21:52:27.497Z,53.65
2019-02-15T21:54:54.042Z,52.81
2019-02-15T21:57:20.591Z,53.88
2019-02-15T21:59:47.119Z,53.76
2019-02-15T22:02:13.681Z,53.62
2019-02-15T22:04:40.206Z,54.55
2019-02-15T22:07:06.759Z,53.50
2019-02-15T22:09:33.298Z,53.36
2019-02-15T22:11:59.850Z,53.18
2019-02-15T22:14:26.386Z,53.86
2019-02-15T22:16:52.959Z,54.11
2019-02-15T22:19:19.489Z,52.42
2019-02-15T22:21:46.040Z,52.21
2019-02-15T22:24:12.597Z,47.59
2019-02-15T22:26:39.131Z,50.17
2019-02-15T22:29:05.668Z,49.89
2019-02-15T22:31:32.240Z,50.31
2019-02-15T22:33:58.777Z,47.56
2019-02-15T22:36:25.545Z,45.92
2019-02-15T22:38:52.078Z,45.15
2019-02-15T22:41:18.605Z,45.43
2019-02-15T22:43:45.280Z,45.50
2019-02-15T22:46:11.799Z,45.55
2019-02-15T22:48:38.348Z,44.90
2019-02-15T22:51:04.885Z,46.53
2019-02-15T22:53:31.437Z,47.15
2019-02-15T22:55:57.957Z,48.50
2019-02-15T22:58:24.503Z,49.46
2019-02-15T23:00:57.191Z,49.50
2019-02-15T23:03:24.778Z,50.01
2019-02-15T23:05:51.322Z,50.81
2019-02-15T23:08:17.964Z,50.66
2019-02-15T23:10:44.517Z,49.48
2019-02-15T23:13:11.050Z,50.05
2019-02-15T23:15:37.600Z,48.77
2019-02-15T23:18:04.175Z,48.79
2019-02-15T23:20:30.700Z,49.36
2019-02-15T23:22:57.260Z,47.89
2019-02-15T23:25:25.151Z,47.60
2019-02-15T23:27:51.941Z,46.51
2019-02-15T23:30:18.475Z,45.50
2019-02-15T23:32:45.031Z,45.86
2019-02-15T23:35:11.566Z,45.29
2019-02-15T23:37:38.119Z,44.91
2019-02-15T23:40:04.661Z,45.83
2019-02-15T23:42:31.215Z,46.71
2019-02-15T23:44:57.768Z,47.60
2019-02-15T23:47:24.309Z,47.90
2019-02-15T23:49:50.837Z,48.45
2019-02-15T23:52:17.392Z,48.94
2019-02-15T23:54:43.949Z,49.08
2019-02-15T23:57:10.473Z,49.22
2019-02-15T23:59:37.029Z,49.39
